createdAt,value
2023-01-23T00:00:49.481Z,14.48
2023-01-23T00:03:19.157Z,16.92
2023-01-23T00:05:58.991Z,19.15
2023-01-23T00:08:29.141Z,26.08
2023-01-23T00:10:59.269Z,27.88
2023-01-23T00:13:28.723Z,26.30
2023-01-23T00:15:59.529Z,24.50
2023-01-23T00:18:28.996Z,25.83
2023-01-23T00:20:58.461Z,27.27
2023-01-23T00:23:27.824Z,25.70
2023-01-23T00:25:57.317Z,25.13
2023-01-23T00:28:26.831Z,24.73
2023-01-23T00:31:03.844Z,22.30
2023-01-23T00:33:33.668Z,21.88
2023-01-23T00:36:03.601Z,20.83
2023-01-23T00:38:34.853Z,22.02
2023-01-23T00:41:05.700Z,23.25
2023-01-23T00:43:35.224Z,23.67
2023-01-23T00:46:06.661Z,24.20
2023-01-23T00:48:36.119Z,24.13
2023-01-23T00:51:06.707Z,25.58
2023-01-23T00:53:36.180Z,22.48
2023-01-23T00:56:07.282Z,23.75
2023-01-23T00:58:36.715Z,23.80
2023-01-23T01:01:07.822Z,23.85
2023-01-23T01:03:37.738Z,23.67
2023-01-23T01:06:07.558Z,24.55
2023-01-23T01:08:37.128Z,24.88
2023-01-23T01:11:07.628Z,24.05
2023-01-23T01:13:37.667Z,24.58
2023-01-23T01:16:09.899Z,23.13
2023-01-23T01:18:39.920Z,23.60
2023-01-23T01:21:12.357Z,22.90
2023-01-23T01:23:42.657Z,22.70
2023-01-23T01:26:13.426Z,22.58
2023-01-23T01:28:43.177Z,24.45
2023-01-23T01:31:17.028Z,22.10
2023-01-23T01:33:48.193Z,22.02
2023-01-23T01:36:22.030Z,21.10
2023-01-23T01:38:51.967Z,23.35
2023-01-23T01:41:21.450Z,23.92
2023-01-23T01:43:51.135Z,23.15
2023-01-23T01:46:25.623Z,24.23
2023-01-23T01:49:09.356Z,23.02
2023-01-23T01:54:25.582Z,20.98
2023-01-23T01:57:15.612Z,20.95
2023-01-23T01:59:56.086Z,21.77
2023-01-23T02:02:34.966Z,21.33
2023-01-23T02:05:11.042Z,20.70
2023-01-23T02:07:47.281Z,22.05
2023-01-23T02:10:17.894Z,21.05
2023-01-23T02:12:51.376Z,20.73
2023-01-23T02:15:23.717Z,18.00
2023-01-23T02:17:56.330Z,21.02
2023-01-23T02:20:29.195Z,15.65
2023-01-23T02:23:08.802Z,19.60
2023-01-23T02:25:53.279Z,19.95
2023-01-23T02:28:23.086Z,19.45
2023-01-23T02:30:53.184Z,20.67
2023-01-23T02:33:51.576Z,21.98
2023-01-23T02:36:24.859Z,20.27
2023-01-23T02:39:05.861Z,22.20
2023-01-23T02:41:41.408Z,21.23
2023-01-23T02:44:18.150Z,22.45
2023-01-23T02:46:53.670Z,22.17
2023-01-23T02:49:23.624Z,21.10
2023-01-23T02:51:55.422Z,21.55
2023-01-23T02:54:26.839Z,17.52
2023-01-23T02:56:57.788Z,21.55
2023-01-23T02:59:45.622Z,22.15
2023-01-23T03:02:15.786Z,22.95
2023-01-23T03:04:45.301Z,23.27
2023-01-23T03:07:15.433Z,20.25
2023-01-23T03:09:47.776Z,20.63
2023-01-23T03:12:18.628Z,22.77
2023-01-23T03:14:48.522Z,20.67
2023-01-23T03:17:17.956Z,23.00
2023-01-23T03:19:47.439Z,22.63
2023-01-23T03:22:17.311Z,23.40
2023-01-23T03:24:46.840Z,22.95
2023-01-23T03:27:16.443Z,22.33
2023-01-23T03:30:09.202Z,23.40
2023-01-23T03:32:39.553Z,21.95
2023-01-23T03:35:14.001Z,24.60
2023-01-23T03:37:44.237Z,19.67
2023-01-23T03:40:36.731Z,19.38
2023-01-23T03:43:07.936Z,21.73
2023-01-23T03:45:42.475Z,20.38
2023-01-23T03:48:11.912Z,22.40
2023-01-23T03:50:41.551Z,23.08
2023-01-23T03:53:12.519Z,21.60
2023-01-23T03:55:41.969Z,22.02
2023-01-23T03:58:11.438Z,21.45
2023-01-23T04:00:47.965Z,22.92
2023-01-23T04:03:17.654Z,20.98
2023-01-23T04:05:47.148Z,21.10
2023-01-23T04:08:18.010Z,21.50
2023-01-23T04:10:48.376Z,21.23
2023-01-23T04:13:19.194Z,22.60
2023-01-23T04:15:49.937Z,22.17
2023-01-23T04:18:19.546Z,23.55
2023-01-23T04:20:49.462Z,21.25
2023-01-23T04:23:19.223Z,20.35
2023-01-23T04:25:49.771Z,20.27
2023-01-23T04:28:20.522Z,19.85
2023-01-23T04:30:54.596Z,21.00
2023-01-23T04:33:30.639Z,20.85
2023-01-23T04:36:04.540Z,19.55
2023-01-23T04:38:36.130Z,23.13
2023-01-23T04:41:26.113Z,19.42
2023-01-23T04:44:20.205Z,21.77
2023-01-23T04:47:23.431Z,21.50
2023-01-23T04:49:52.983Z,18.35
2023-01-23T04:52:22.445Z,22.63
2023-01-23T04:54:59.649Z,19.05
2023-01-23T04:57:29.335Z,22.23
2023-01-23T05:00:16.561Z,19.45
2023-01-23T05:02:49.903Z,20.23
2023-01-23T05:05:21.082Z,19.77
2023-01-23T05:10:22.841Z,21.02
2023-01-23T05:12:52.727Z,21.83
2023-01-23T05:15:23.661Z,19.80
2023-01-23T05:17:55.148Z,20.63
2023-01-23T05:20:24.831Z,20.23
2023-01-23T05:22:54.361Z,23.17
2023-01-23T05:25:31.480Z,21.67
2023-01-23T05:28:02.167Z,18.73
2023-01-23T05:30:33.753Z,20.23
2023-01-23T05:33:20.795Z,22.38
2023-01-23T05:35:50.585Z,20.77
2023-01-23T05:38:20.054Z,20.70
2023-01-23T05:40:49.489Z,21.48
2023-01-23T05:43:41.973Z,21.27
2023-01-23T05:46:31.750Z,23.05
2023-01-23T05:49:03.306Z,22.35
2023-01-23T05:51:33.819Z,22.52
2023-01-23T05:54:04.497Z,24.08
2023-01-23T05:56:35.373Z,22.20
2023-01-23T05:59:30.835Z,22.77
2023-01-23T06:02:10.766Z,21.38
2023-01-23T06:05:09.566Z,24.05
2023-01-23T06:07:59.194Z,22.63
2023-01-23T06:10:28.695Z,22.70
2023-01-23T06:12:59.155Z,25.10
2023-01-23T06:15:28.713Z,22.05
2023-01-23T06:17:59.572Z,20.92
2023-01-23T06:20:30.899Z,23.00
2023-01-23T06:23:00.925Z,23.23
2023-01-23T06:25:30.722Z,23.02
2023-01-23T06:28:03.122Z,21.48
2023-01-23T06:30:34.590Z,22.05
2023-01-23T06:33:04.897Z,22.88
2023-01-23T06:35:40.711Z,22.65
2023-01-23T06:38:10.405Z,25.17
2023-01-23T06:40:39.989Z,21.80
2023-01-23T06:43:26.799Z,25.40
2023-01-23T06:45:57.201Z,22.02
2023-01-23T06:48:27.471Z,20.48
2023-01-23T06:51:01.769Z,23.05
2023-01-23T06:53:32.997Z,22.60
2023-01-23T06:56:06.834Z,24.92
2023-01-23T06:58:39.757Z,24.48
2023-01-23T07:01:19.316Z,25.85
2023-01-23T07:04:15.017Z,25.70
2023-01-23T07:06:47.482Z,24.98
2023-01-23T07:09:18.992Z,24.58
2023-01-23T07:11:56.866Z,26.70
2023-01-23T07:14:28.571Z,25.30
2023-01-23T07:16:58.656Z,26.23
2023-01-23T07:19:28.751Z,27.80
2023-01-23T07:22:01.420Z,30.42
2023-01-23T07:24:32.415Z,34.30
2023-01-23T07:27:01.877Z,33.03
2023-01-23T07:29:31.631Z,28.77
2023-01-23T07:32:01.380Z,31.75
2023-01-23T07:34:30.855Z,30.70
2023-01-23T07:37:01.701Z,33.95
2023-01-23T07:39:31.309Z,30.85
2023-01-23T07:42:00.942Z,30.77
2023-01-23T07:44:31.389Z,31.20
2023-01-23T07:47:00.854Z,28.05
2023-01-23T07:49:30.331Z,28.10
2023-01-23T07:52:01.200Z,27.17
2023-01-23T07:54:31.011Z,30.05
2023-01-23T07:57:00.590Z,26.67
2023-01-23T07:59:30.024Z,24.15
2023-01-23T08:01:59.584Z,24.02
2023-01-23T08:04:29.082Z,24.83
2023-01-23T08:06:58.657Z,22.77
2023-01-23T08:09:29.515Z,22.15
2023-01-23T08:11:59.009Z,25.10
2023-01-23T08:14:28.559Z,22.48
2023-01-23T08:16:58.317Z,22.52
2023-01-23T08:19:28.744Z,21.45
2023-01-23T08:21:58.154Z,20.73
2023-01-23T08:24:28.901Z,19.05
2023-01-23T08:26:58.801Z,21.92
2023-01-23T08:29:28.204Z,21.02
2023-01-23T08:31:57.800Z,21.25
2023-01-23T08:34:27.591Z,20.65
2023-01-23T08:36:57.015Z,19.38
2023-01-23T08:39:26.819Z,20.35
2023-01-23T08:41:57.652Z,20.60
2023-01-23T08:44:31.167Z,19.73
2023-01-23T08:47:02.134Z,22.10
2023-01-23T08:49:31.635Z,19.33
2023-01-23T08:52:01.353Z,18.02
2023-01-23T08:54:31.087Z,19.77
2023-01-23T08:57:02.963Z,19.40
2023-01-23T08:59:32.412Z,19.17
2023-01-23T09:02:02.275Z,19.67
2023-01-23T09:04:32.080Z,18.80
2023-01-23T09:07:01.488Z,19.55
2023-01-23T09:09:31.191Z,18.42
2023-01-23T09:12:02.020Z,19.10
2023-01-23T09:14:31.426Z,17.85
2023-01-23T09:17:01.002Z,20.30
2023-01-23T09:19:32.582Z,19.10
2023-01-23T09:22:02.058Z,20.77
2023-01-23T09:24:31.489Z,18.88
2023-01-23T09:27:02.375Z,16.77
2023-01-23T09:29:31.866Z,17.42
2023-01-23T09:32:02.069Z,18.80
2023-01-23T09:34:32.005Z,17.85
2023-01-23T09:37:01.501Z,17.10
2023-01-23T09:39:31.012Z,20.77
2023-01-23T09:42:08.508Z,16.52
2023-01-23T09:44:42.521Z,19.75
2023-01-23T09:47:18.761Z,17.42
2023-01-23T09:49:58.460Z,17.80
2023-01-23T09:52:35.503Z,16.08
2023-01-23T09:55:16.855Z,21.05
2023-01-23T09:57:55.059Z,17.10
2023-01-23T10:00:29.926Z,16.75
2023-01-23T10:03:01.631Z,18.52
2023-01-23T10:05:43.466Z,16.02
2023-01-23T10:08:28.673Z,15.90
2023-01-23T10:11:04.400Z,15.07
2023-01-23T10:13:59.044Z,15.40
2023-01-23T10:16:52.829Z,17.38
2023-01-23T10:19:57.620Z,16.70
2023-01-23T10:22:36.240Z,16.90
2023-01-23T10:25:17.209Z,18.17
2023-01-23T10:27:49.695Z,18.15
2023-01-23T10:30:31.002Z,15.50
2023-01-23T10:33:04.027Z,18.15
2023-01-23T10:35:44.687Z,18.20
2023-01-23T10:38:27.710Z,16.05
2023-01-23T10:41:15.350Z,18.08
2023-01-23T10:43:48.840Z,19.33
2023-01-23T10:46:22.838Z,19.27
2023-01-23T10:48:54.178Z,19.33
2023-01-23T10:51:47.037Z,19.60
2023-01-23T10:54:31.384Z,21.98
2023-01-23T10:57:04.800Z,19.23
2023-01-23T10:59:39.381Z,19.67
2023-01-23T11:02:30.477Z,18.67
2023-01-23T11:05:04.597Z,17.10
2023-01-23T11:07:40.351Z,16.95
2023-01-23T11:10:23.867Z,16.88
2023-01-23T11:12:56.685Z,18.58
2023-01-23T11:15:29.370Z,14.57
2023-01-23T11:18:02.648Z,19.38
2023-01-23T11:20:38.452Z,16.80
2023-01-23T11:23:17.889Z,16.38
2023-01-23T11:25:50.034Z,17.38
2023-01-23T11:28:26.969Z,17.80
2023-01-23T11:31:13.193Z,18.85
2023-01-23T11:33:53.850Z,17.73
2023-01-23T11:36:51.142Z,17.58
2023-01-23T11:39:42.390Z,15.13
2023-01-23T11:42:14.212Z,17.35
2023-01-23T11:44:46.522Z,16.90
2023-01-23T11:47:58.899Z,17.27
2023-01-23T11:50:54.984Z,17.27
2023-01-23T11:53:42.224Z,17.80
2023-01-23T11:56:44.815Z,17.75
2023-01-23T11:59:59.350Z,19.20
2023-01-23T12:03:11.708Z,17.83
2023-01-23T12:09:14.590Z,17.38
2023-01-23T12:12:06.977Z,17.35
2023-01-23T12:14:52.649Z,20.40
2023-01-23T12:17:40.277Z,16.87
2023-01-23T12:20:36.941Z,18.67
2023-01-23T12:23:30.775Z,20.17
2023-01-23T12:29:35.227Z,16.85
2023-01-23T12:32:32.890Z,19.60
2023-01-23T12:35:31.381Z,19.88
2023-01-23T12:38:27.160Z,18.23
2023-01-23T12:41:13.513Z,17.48
2023-01-23T12:43:54.200Z,16.60
2023-01-23T12:46:33.956Z,18.45
2023-01-23T12:49:21.252Z,19.67
2023-01-23T12:51:57.819Z,20.58
2023-01-23T12:54:39.357Z,19.20
2023-01-23T12:57:11.719Z,19.13
2023-01-23T12:59:59.317Z,17.80
2023-01-23T13:02:40.169Z,20.02
2023-01-23T13:05:22.352Z,18.48
2023-01-23T13:08:03.991Z,17.15
2023-01-23T13:11:15.222Z,19.52
2023-01-23T13:13:46.724Z,18.90
2023-01-23T13:16:18.776Z,17.13
2023-01-23T13:19:14.318Z,18.63
2023-01-23T13:22:06.760Z,19.20
2023-01-23T13:25:05.051Z,18.13
2023-01-23T13:27:51.181Z,18.23
2023-01-23T13:30:44.700Z,18.92
2023-01-23T13:33:58.743Z,19.75
2023-01-23T13:36:39.177Z,20.75
2023-01-23T13:39:30.801Z,19.67
2023-01-23T13:42:36.693Z,17.35
2023-01-23T13:45:30.749Z,18.55
2023-01-23T14:39:05.849Z,16.85
2023-01-23T14:41:42.263Z,18.23
2023-01-23T14:44:22.812Z,18.05
2023-01-23T14:46:56.174Z,15.73
2023-01-23T14:52:02.494Z,18.20
2023-01-23T14:54:37.846Z,19.67
2023-01-23T14:57:10.259Z,18.80
2023-01-23T14:59:42.878Z,18.48
2023-01-23T15:02:34.433Z,20.35
2023-01-23T15:05:29.353Z,21.55
2023-01-23T15:08:03.226Z,21.15
2023-01-23T15:10:48.364Z,20.17
2023-01-23T15:13:25.641Z,20.88
2023-01-23T15:15:59.819Z,20.85
2023-01-23T15:18:33.059Z,22.85
2023-01-23T15:21:05.990Z,18.92
2023-01-23T15:24:01.202Z,19.45
2023-01-23T15:26:37.091Z,18.77
2023-01-23T15:29:22.867Z,19.77
2023-01-23T15:31:54.087Z,17.58
2023-01-23T15:34:32.943Z,20.58
2023-01-23T15:37:08.404Z,18.38
2023-01-23T15:39:50.517Z,18.23
2023-01-23T15:42:35.250Z,22.00
2023-01-23T15:45:14.758Z,20.48
2023-01-23T15:47:45.413Z,19.13
2023-01-23T15:50:15.443Z,18.17
2023-01-23T15:52:50.572Z,17.85
2023-01-23T15:55:22.491Z,17.33
2023-01-23T15:57:54.073Z,19.20
2023-01-23T16:00:27.032Z,19.48
2023-01-23T16:02:59.146Z,19.20
2023-01-23T16:05:34.770Z,18.52
2023-01-23T16:08:07.331Z,17.60
2023-01-23T16:10:42.067Z,18.27
2023-01-23T16:13:15.155Z,16.73
2023-01-23T16:15:44.759Z,19.70
2023-01-23T16:18:14.319Z,17.13
2023-01-23T16:21:12.834Z,19.58
2023-01-23T16:23:47.479Z,20.00
2023-01-23T16:26:21.861Z,23.65
2023-01-23T16:28:57.081Z,18.67
2023-01-23T16:31:28.897Z,19.77
2023-01-23T16:33:58.639Z,20.98
2023-01-23T16:36:28.232Z,19.13
2023-01-23T16:38:57.715Z,19.90
2023-01-23T16:41:27.237Z,20.00
2023-01-23T16:43:58.101Z,19.05
2023-01-23T16:46:27.898Z,23.40
2023-01-23T16:48:57.571Z,21.52
2023-01-23T16:51:30.799Z,25.95
2023-01-23T16:54:14.251Z,22.70
2023-01-23T16:56:51.653Z,23.42
2023-01-23T16:59:35.160Z,20.92
2023-01-23T17:05:34.173Z,23.17
2023-01-23T17:08:18.612Z,21.92
2023-01-23T17:10:51.096Z,24.95
2023-01-23T17:13:22.851Z,22.17
2023-01-23T17:15:56.915Z,23.63
2023-01-23T17:18:30.122Z,25.92
2023-01-23T17:21:00.695Z,22.08
2023-01-23T17:23:30.720Z,22.90
2023-01-23T17:26:01.800Z,20.20
2023-01-23T17:28:31.752Z,25.23
2023-01-23T17:31:05.039Z,24.55
2023-01-23T17:36:07.574Z,21.85
2023-01-23T17:38:39.469Z,21.27
2023-01-23T17:41:14.758Z,21.75
2023-01-23T17:43:44.876Z,20.88
2023-01-23T17:46:26.332Z,21.27
2023-01-23T17:48:57.945Z,22.60
2023-01-23T17:51:28.176Z,24.67
2023-01-23T17:54:00.093Z,22.70
2023-01-23T17:56:29.739Z,20.27
2023-01-23T17:58:59.466Z,23.85
2023-01-23T18:01:31.652Z,20.80
2023-01-23T18:04:01.270Z,20.45
2023-01-23T18:06:30.715Z,20.23
2023-01-23T18:09:02.598Z,19.23
2023-01-23T18:11:38.478Z,20.52
2023-01-23T18:14:36.040Z,18.60
2023-01-23T18:17:25.270Z,20.15
2023-01-23T18:19:55.883Z,21.20
2023-01-23T18:22:26.458Z,21.60
2023-01-23T18:24:57.124Z,19.50
2023-01-23T18:27:28.049Z,20.00
2023-01-23T18:30:21.953Z,20.90
2023-01-23T18:36:12.973Z,19.02
2023-01-23T18:39:07.442Z,19.23
2023-01-23T18:41:40.731Z,22.15
2023-01-23T18:44:20.094Z,21.25
2023-01-23T18:46:52.243Z,22.38
2023-01-23T18:49:32.323Z,18.95
2023-01-23T18:52:11.292Z,23.45
2023-01-23T18:54:54.330Z,22.75
2023-01-23T18:57:53.986Z,19.13
2023-01-23T19:00:30.654Z,22.63
2023-01-23T19:03:11.990Z,48.40
2023-01-23T19:05:43.835Z,27.70
2023-01-23T19:08:30.806Z,25.20
2023-01-23T19:11:08.291Z,25.88
2023-01-23T19:13:46.017Z,31.20
2023-01-23T19:16:27.514Z,27.65
2023-01-23T19:19:15.297Z,28.30
2023-01-23T19:21:48.355Z,28.65
2023-01-23T19:24:21.765Z,27.90
2023-01-23T19:26:54.297Z,27.77
2023-01-23T19:29:24.429Z,28.67
2023-01-23T19:32:09.918Z,30.75
2023-01-23T19:34:39.708Z,25.27
2023-01-23T19:37:10.602Z,27.35
2023-01-23T19:39:40.237Z,27.40
2023-01-23T19:42:16.242Z,25.30
2023-01-23T19:44:45.726Z,29.05
2023-01-23T19:47:15.181Z,27.83
2023-01-23T19:49:46.889Z,28.58
2023-01-23T19:52:19.016Z,30.02
2023-01-23T19:54:49.563Z,28.77
2023-01-23T19:57:19.060Z,29.40
2023-01-23T19:59:48.517Z,25.92
2023-01-23T20:02:20.958Z,27.42
2023-01-23T20:04:50.593Z,27.65
2023-01-23T20:07:21.489Z,33.72
2023-01-23T20:09:52.147Z,30.92
2023-01-23T20:12:21.641Z,31.55
2023-01-23T20:14:51.390Z,27.00
2023-01-23T20:17:21.518Z,30.00
2023-01-23T20:19:53.219Z,29.30
2023-01-23T20:22:24.456Z,28.55
2023-01-23T20:24:54.087Z,29.50
2023-01-23T20:27:23.701Z,27.63
2023-01-23T20:29:53.352Z,27.67
2023-01-23T20:32:22.893Z,27.55
2023-01-23T20:34:55.673Z,31.23
2023-01-23T20:37:27.440Z,28.05
2023-01-23T20:39:57.283Z,30.27
2023-01-23T20:42:26.882Z,27.42
2023-01-23T20:44:56.673Z,28.98
2023-01-23T20:47:26.374Z,29.17
2023-01-23T20:49:55.874Z,27.67
2023-01-23T20:52:44.688Z,26.25
2023-01-23T20:55:14.355Z,28.77
2023-01-23T20:58:01.326Z,30.40
2023-01-23T21:00:30.995Z,26.25
2023-01-23T21:03:00.699Z,26.08
2023-01-23T21:05:30.747Z,26.13
2023-01-23T21:08:02.031Z,26.85
2023-01-23T21:10:31.654Z,24.95
2023-01-23T21:13:07.960Z,27.30
2023-01-23T21:15:37.802Z,27.90
2023-01-23T21:18:07.660Z,26.55
2023-01-23T21:20:42.270Z,25.05
2023-01-23T21:23:13.256Z,25.95
2023-01-23T21:25:42.872Z,26.08
2023-01-23T21:28:16.969Z,26.88
2023-01-23T21:30:47.170Z,26.50
2023-01-23T21:33:17.351Z,26.85
2023-01-23T21:35:50.339Z,26.77
2023-01-23T21:38:22.957Z,23.50
2023-01-23T21:40:55.238Z,26.75
2023-01-23T21:43:24.842Z,26.17
2023-01-23T21:45:57.110Z,23.73
2023-01-23T21:48:29.641Z,25.55
2023-01-23T21:51:07.694Z,27.90
2023-01-23T21:53:43.084Z,26.48
2023-01-23T21:56:15.522Z,29.63
2023-01-23T21:58:45.175Z,29.15
2023-01-23T22:01:35.947Z,26.75
2023-01-23T22:04:09.488Z,24.17
2023-01-23T22:09:17.803Z,23.13
2023-01-23T22:11:49.733Z,23.65
2023-01-23T22:14:20.432Z,23.35
2023-01-23T22:16:50.932Z,24.92
2023-01-23T22:19:25.644Z,23.70
2023-01-23T22:21:57.281Z,27.35
2023-01-23T22:24:28.756Z,28.05
2023-01-23T22:26:58.435Z,25.25
2023-01-23T22:29:27.960Z,25.88
2023-01-23T22:31:58.432Z,26.60
2023-01-23T22:34:28.409Z,24.83
2023-01-23T22:36:58.457Z,24.85
2023-01-23T22:39:29.605Z,27.20
2023-01-23T22:41:59.406Z,24.55
2023-01-23T22:44:29.066Z,22.98
2023-01-23T22:46:58.857Z,24.27
2023-01-23T22:49:28.711Z,23.00
2023-01-23T22:51:58.355Z,24.63
2023-01-23T22:54:30.227Z,22.63
2023-01-23T22:57:00.003Z,25.33
2023-01-23T22:59:29.976Z,25.98
2023-01-23T23:01:59.782Z,23.48
2023-01-23T23:04:29.641Z,24.67
2023-01-23T23:06:59.317Z,24.60
2023-01-23T23:09:30.805Z,21.92
2023-01-23T23:12:00.693Z,22.50
2023-01-23T23:14:30.352Z,22.80
2023-01-23T23:17:00.400Z,22.85
2023-01-23T23:19:30.066Z,22.52
2023-01-23T23:21:59.878Z,23.35
2023-01-23T23:24:31.061Z,24.70
2023-01-23T23:27:00.833Z,21.85
2023-01-23T23:29:30.567Z,22.58
2023-01-23T23:32:00.556Z,22.10
2023-01-23T23:34:30.504Z,23.77
2023-01-23T23:37:00.119Z,23.33
2023-01-23T23:39:31.098Z,19.92
2023-01-23T23:42:00.735Z,20.33
2023-01-23T23:44:30.405Z,23.95
2023-01-23T23:47:00.053Z,21.77
2023-01-23T23:49:29.875Z,20.60
2023-01-23T23:51:59.582Z,22.17
2023-01-23T23:54:57.983Z,21.45
2023-01-23T23:57:27.516Z,25.42
2023-01-23T23:59:57.092Z,22.33
